.
WxDataArchive / Data Records for 2007-02-28
2007-02-27 February 2007 2007-03-01

Data Records for Wednesday, 28 February 2007

Time	Temp	Chill	HIndex	Humid	Dewpt	 Wind 	HiWind	WindDir	Rain 	Barom 
-----	----	-----	------	-----	-----	------	------	-------	-----	----- 
00:00	31.2	31.2	31.2	82	26.4	0	0	---	0.00	30.091 
00:05	31.0	31.0	31.0	83	26.5	0	0	---	0.00	30.092 
00:10	31.0	31.0	31.0	83	26.5	0	1	248	0.00	30.092 
00:15	31.0	31.0	31.0	83	26.5	0	1	248	0.00	30.093 
00:20	31.0	31.0	31.0	83	26.5	0	1	248	0.00	30.093 
00:25	31.0	31.0	31.0	83	26.5	0	0	---	0.00	30.093 
00:30	31.0	31.0	31.0	84	26.7	0	0	---	0.00	30.096 
00:35	31.0	31.0	31.0	83	26.5	0	0	---	0.00	30.096 
00:40	31.0	31.0	31.0	83	26.5	0	0	---	0.00	30.094 
00:45	30.9	30.9	30.9	84	26.6	0	1	248	0.00	30.101 
00:50	30.9	30.9	30.9	84	26.6	0	0	---	0.00	30.098 
00:55	30.9	30.9	30.9	84	26.6	0	0	---	0.00	30.096 
01:00	30.9	30.9	30.9	84	26.6	0	0	---	0.00	30.096 
01:05	30.7	30.7	30.7	84	26.4	0	0	---	0.00	30.095 
01:10	30.7	30.7	30.7	84	26.4	0	1	248	0.00	30.094 
01:15	30.6	30.6	30.6	84	26.4	0	2	248	0.00	30.093 
01:20	30.4	30.4	30.4	84	26.2	0	1	248	0.00	30.093 
01:25	30.3	30.3	30.3	84	26.1	0	1	248	0.00	30.094 
01:30	30.1	30.1	30.1	84	25.9	0	1	248	0.00	30.095 
01:35	30.0	30.0	30.0	84	25.8	0	0	---	0.00	30.094 
01:40	29.7	29.7	29.7	85	25.8	0	1	248	0.00	30.102 
01:45	29.4	29.4	29.4	85	25.5	0	1	248	0.00	30.107 
01:50	29.1	29.1	29.1	85	25.2	0	1	248	0.00	30.109 
01:55	28.8	28.8	28.8	85	24.9	0	0	---	0.00	30.109 
02:00	28.7	28.7	28.7	86	25.1	0	0	---	0.00	30.109 
02:05	28.4	28.4	28.4	87	25.0	0	0	---	0.00	30.109 
02:10	28.2	28.2	28.2	87	24.8	0	0	---	0.00	30.110 
02:15	27.9	27.9	27.9	87	24.5	0	0	---	0.00	30.115 
02:20	27.8	27.8	27.8	88	24.7	0	0	---	0.00	30.115 
02:25	27.6	27.6	27.6	88	24.5	0	0	---	0.00	30.116 
02:30	27.5	27.5	27.5	88	24.4	0	0	---	0.00	30.114 
02:35	27.3	27.3	27.3	88	24.2	0	0	---	0.00	30.119 
02:40	27.2	27.2	27.2	88	24.1	0	0	---	0.00	30.122 
02:45	26.9	26.9	26.9	88	23.8	0	0	---	0.00	30.123 
02:50	26.7	26.7	26.7	88	23.6	0	0	---	0.00	30.124 
02:55	26.6	26.6	26.6	88	23.5	0	0	---	0.00	30.125 
03:00	26.4	26.4	26.4	89	23.6	0	0	---	0.00	30.126 
03:05	26.1	26.1	26.1	89	23.3	0	0	---	0.00	30.125 
03:10	26.0	26.0	26.0	89	23.2	0	0	---	0.00	30.125 
03:15	25.7	25.7	25.7	89	22.9	0	0	---	0.00	30.125 
03:20	25.7	25.7	25.7	90	23.2	0	0	---	0.00	30.125 
03:25	25.6	25.6	25.6	90	23.1	0	0	---	0.00	30.126 
03:30	25.4	25.4	25.4	90	22.9	0	0	---	0.00	30.127 
03:35	25.3	25.3	25.3	90	22.8	0	0	---	0.00	30.129 
03:40	25.1	25.1	25.1	90	22.6	0	0	---	0.00	30.130 
03:45	25.0	25.0	25.0	90	22.5	0	0	---	0.00	30.130 
03:50	24.8	24.8	24.8	90	22.3	0	0	---	0.00	30.130 
03:55	24.5	24.5	24.5	90	22.0	0	0	---	0.00	30.129 
04:00	24.5	24.5	24.5	91	22.3	0	0	---	0.00	30.128 
04:05	24.4	24.4	24.4	91	22.2	0	0	---	0.00	30.130 
04:10	24.2	24.2	24.2	91	22.0	0	0	---	0.00	30.134 
04:15	24.1	24.1	24.1	91	21.9	0	0	---	0.00	30.132 
04:20	23.9	23.9	23.9	91	21.7	0	0	---	0.00	30.133 
04:25	23.8	23.8	23.8	91	21.6	0	0	---	0.00	30.136 
04:30	23.6	23.6	23.6	91	21.4	0	0	---	0.00	30.137 
04:35	23.5	23.5	23.5	91	21.3	0	0	---	0.00	30.138 
04:40	23.6	23.6	23.6	91	21.4	0	0	---	0.00	30.139 
04:45	23.8	23.8	23.8	92	21.8	0	0	---	0.00	30.136 
04:50	23.8	23.8	23.8	92	21.8	0	0	---	0.00	30.137 
04:55	23.9	23.9	23.9	92	21.9	0	0	---	0.00	30.139 
05:00	23.9	23.9	23.9	92	21.9	0	0	---	0.00	30.139 
05:05	24.1	24.1	24.1	92	22.1	0	0	---	0.00	30.140 
05:10	24.1	24.1	24.1	92	22.1	0	0	---	0.00	30.139 
05:15	24.1	24.1	24.1	92	22.1	0	0	---	0.00	30.143 
05:20	24.2	24.2	24.2	92	22.2	0	0	---	0.00	30.143 
05:25	24.2	24.2	24.2	92	22.2	0	0	---	0.00	30.145 
05:30	24.2	24.2	24.2	92	22.2	0	0	---	0.00	30.148 
05:35	24.4	24.4	24.4	92	22.4	0	0	---	0.00	30.148 
05:40	24.5	24.5	24.5	93	22.8	0	0	---	0.00	30.146 
05:45	24.7	24.7	24.7	93	23.0	0	0	---	0.00	30.146 
05:50	24.8	24.8	24.8	93	23.1	0	1	248	0.00	30.145 
05:55	24.8	24.8	24.8	93	23.1	0	0	---	0.00	30.144 
06:00	24.8	24.8	24.8	93	23.1	0	0	---	0.00	30.143 
06:05	24.7	24.7	24.7	93	23.0	0	0	---	0.00	30.142 
06:10	24.5	24.5	24.5	92	22.5	0	0	---	0.00	30.143 
06:15	24.2	24.2	24.2	92	22.2	0	0	---	0.00	30.147 
06:20	24.1	24.1	24.1	92	22.1	0	0	---	0.00	30.147 
06:25	23.9	23.9	23.9	92	21.9	0	0	---	0.00	30.148 
06:30	23.8	23.8	23.8	92	21.8	0	1	248	0.00	30.151 
06:35	23.8	23.8	23.8	92	21.8	0	1	248	0.00	30.151 
06:40	23.8	23.8	23.8	92	21.8	0	0	---	0.00	30.151 
06:45	23.6	23.6	23.6	92	21.6	0	0	---	0.00	30.153 
06:50	23.5	23.5	23.5	92	21.5	0	0	---	0.00	30.156 
06:55	23.2	23.2	23.2	92	21.2	0	0	---	0.00	30.155 
07:00	23.2	23.2	23.2	92	21.2	0	0	---	0.00	30.163 
07:05	23.2	23.2	23.2	92	21.2	0	0	---	0.00	30.166 
07:10	23.2	23.2	23.2	92	21.2	0	0	---	0.00	30.165 
07:15	23.0	23.0	23.0	92	21.0	0	0	---	0.00	30.166 
07:20	22.9	22.9	22.9	92	20.9	0	0	---	0.00	30.165 
07:25	22.9	22.9	22.9	92	20.9	0	0	---	0.00	30.166 
07:30	22.9	22.9	22.9	92	20.9	0	0	---	0.00	30.166 
07:35	23.0	23.0	23.0	93	21.3	0	0	---	0.00	30.167 
07:40	23.2	23.2	23.2	93	21.5	0	0	---	0.00	30.165 
07:45	23.3	23.3	23.3	93	21.6	0	0	---	0.00	30.167 
07:50	23.6	23.6	23.6	93	21.9	0	0	---	0.00	30.165 
07:55	23.9	23.9	23.9	93	22.2	0	0	---	0.00	30.165 
08:00	24.2	24.2	24.2	93	22.5	0	0	---	0.00	30.171 
08:05	24.7	24.7	24.7	94	23.2	0	0	---	0.00	30.171 
08:10	25.1	25.1	25.1	94	23.6	0	0	---	0.00	30.171 
08:15	25.4	25.4	25.4	94	23.9	0	0	---	0.00	30.170 
08:20	25.8	25.8	25.8	94	24.3	0	0	---	0.00	30.170 
08:25	26.3	26.3	26.3	94	24.8	0	0	---	0.00	30.170 
08:30	27.0	27.0	27.0	94	25.5	1	2	248	0.00	30.162 
08:35	27.5	27.5	27.5	94	26.0	1	3	112	0.00	30.159 
08:40	27.8	27.8	27.8	94	26.3	2	4	90	0.00	30.152 
08:45	28.2	28.2	28.2	94	26.7	1	3	90	0.00	30.153 
08:50	28.4	28.4	28.4	93	26.6	2	3	90	0.00	30.151 
08:55	28.7	28.7	28.7	93	26.9	1	3	90	0.00	30.150 
09:00	29.0	29.0	29.0	92	27.0	1	3	90	0.00	30.149 
09:05	29.3	29.3	29.3	92	27.3	1	4	112	0.00	30.148 
09:10	29.4	29.4	29.4	91	27.1	1	4	112	0.00	30.148 
09:15	29.5	29.5	29.5	91	27.2	1	3	112	0.00	30.153 
09:20	29.8	29.8	29.8	90	27.2	1	4	112	0.00	30.156 
09:25	30.1	30.1	30.1	89	27.3	2	4	112	0.00	30.156 
09:30	30.3	30.3	30.3	88	27.2	3	5	90	0.00	30.153 
09:35	30.6	30.6	30.6	88	27.5	2	5	90	0.00	30.152 
09:40	30.7	30.7	30.7	86	27.0	2	4	112	0.00	30.153 
09:45	31.2	31.2	31.2	86	27.5	1	3	112	0.00	30.156 
09:50	31.6	31.6	31.6	85	27.6	1	4	112	0.00	30.155 
09:55	32.1	32.1	32.1	84	27.8	1	3	112	0.00	30.155 
10:00	32.7	32.7	32.7	82	27.8	1	4	112	0.00	30.155 
10:05	33.1	33.1	33.1	81	27.9	2	5	90	0.00	30.155 
10:10	33.2	33.2	33.2	79	27.4	2	6	112	0.00	30.153 
10:15	33.1	33.1	33.1	80	27.6	3	6	112	0.00	30.149 
10:20	33.5	33.5	33.5	79	27.7	3	7	112	0.00	30.149 
10:25	34.1	34.1	34.1	78	28.0	2	4	112	0.00	30.151 
10:30	34.3	34.3	34.3	77	27.9	3	6	112	0.00	30.152 
10:35	34.6	34.6	34.6	76	27.8	2	7	112	0.00	30.149 
10:40	34.6	34.6	34.6	76	27.8	3	5	112	0.00	30.146 
10:45	34.6	31.1	34.6	76	27.8	4	7	112	0.00	30.140 
10:50	34.7	34.7	34.7	74	27.3	3	6	112	0.00	30.138 
10:55	34.9	34.9	34.9	74	27.5	3	6	112	0.00	30.139 
11:00	34.7	31.2	34.7	73	26.9	4	9	90	0.00	30.136 
11:05	34.9	31.4	34.9	75	27.8	4	8	112	0.00	30.136 
11:10	35.0	31.5	35.0	73	27.2	4	9	112	0.00	30.128 
11:15	35.2	31.8	35.2	73	27.4	4	11	112	0.00	30.127 
11:20	35.9	35.9	35.9	72	27.8	2	5	90	0.00	30.134 
11:25	36.5	36.5	36.5	70	27.7	2	5	90	0.00	30.137 
11:30	36.0	32.7	36.0	72	27.9	4	9	112	0.00	30.137 
11:35	35.8	32.5	35.8	70	27.0	4	7	112	0.00	30.137 
11:40	36.0	36.0	36.0	71	27.5	2	5	112	0.00	30.137 
11:45	36.6	36.6	36.6	69	27.4	2	7	112	0.00	30.137 
11:50	36.2	36.2	36.2	70	27.4	3	7	112	0.00	30.140 
11:55	36.2	36.2	36.2	71	27.7	2	4	112	0.00	30.139 
12:00	36.0	36.0	36.0	69	26.8	2	5	112	0.00	30.138 
12:05	36.2	36.2	36.2	70	27.4	2	6	112	0.00	30.137 
12:10	36.0	36.0	36.0	69	26.8	3	9	112	0.00	30.138 
12:15	35.8	32.5	35.8	68	26.3	4	9	112	0.00	30.138 
12:20	35.6	35.6	35.6	68	26.1	3	7	112	0.00	30.137 
12:25	35.9	35.9	35.9	68	26.4	3	7	112	0.00	30.132 
12:30	35.6	30.5	35.6	67	25.7	6	10	112	0.00	30.122 
12:35	35.5	32.1	35.5	67	25.6	4	9	112	0.00	30.121 
12:40	35.8	35.8	35.8	65	25.2	3	9	90	0.00	30.119 
12:45	35.8	35.8	35.8	65	25.2	3	7	90	0.00	30.118 
12:50	35.9	35.9	35.9	65	25.3	3	9	90	0.00	30.120 
12:55	36.2	36.2	36.2	65	25.6	2	5	90	0.00	30.120 
13:00	36.5	36.5	36.5	64	25.5	3	7	90	0.00	30.110 
13:05	36.6	36.6	36.6	65	26.0	3	7	112	0.00	30.109 
13:10	36.2	36.2	36.2	67	26.3	3	7	90	0.00	30.111 
13:15	36.3	36.3	36.3	64	25.3	2	4	112	0.00	30.113 
13:20	36.2	36.2	36.2	65	25.6	3	9	112	0.00	30.110 
13:25	36.2	36.2	36.2	65	25.6	3	13	112	0.00	30.109 
13:30	36.2	36.2	36.2	65	25.6	3	6	112	0.00	30.107 
13:35	35.9	32.6	35.9	66	25.7	4	7	112	0.00	30.107 
13:40	35.6	32.2	35.6	67	25.7	4	10	112	0.00	30.105 
13:45	35.6	32.2	35.6	67	25.7	4	8	112	0.00	30.103 
13:50	35.6	32.2	35.6	67	25.7	4	8	112	0.00	30.099 
13:55	35.8	32.5	35.8	67	25.9	4	7	112	0.00	30.094 
14:00	35.6	32.2	35.6	68	26.1	4	9	112	0.00	30.097 
14:05	35.6	35.6	35.6	68	26.1	3	7	112	0.00	30.100 
14:10	35.6	32.2	35.6	68	26.1	4	10	112	0.00	30.095 
14:15	35.6	31.3	35.6	68	26.1	5	10	112	0.00	30.093 
14:20	35.6	32.2	35.6	68	26.1	4	12	90	0.00	30.087 
14:25	35.5	30.4	35.5	68	26.0	6	11	112	0.00	30.078 
14:30	35.5	32.1	35.5	69	26.4	4	6	112	0.00	30.069 
14:35	35.5	31.2	35.5	69	26.4	5	9	112	0.00	30.065 
14:40	35.3	31.0	35.3	69	26.2	5	10	112	0.00	30.065 
14:45	35.3	31.0	35.3	69	26.2	5	13	112	0.00	30.058 
14:50	35.3	31.0	35.3	69	26.2	5	10	112	0.00	30.055 
14:55	35.5	31.2	35.5	70	26.7	5	11	112	0.00	30.050 
15:00	35.5	32.1	35.5	70	26.7	4	9	112	0.00	30.049 
15:05	35.5	31.2	35.5	71	27.0	5	9	90	0.00	30.049 
15:10	35.5	31.2	35.5	70	26.7	5	9	112	0.00	30.051 
15:15	35.6	32.2	35.6	70	26.8	4	7	112	0.00	30.050 
15:20	35.6	31.3	35.6	70	26.8	5	11	112	0.00	30.050 
15:25	35.5	31.2	35.5	71	27.0	5	10	112	0.00	30.049 
15:30	35.5	32.1	35.5	71	27.0	4	7	112	0.00	30.048 
15:35	35.6	32.2	35.6	71	27.1	4	7	112	0.00	30.046 
15:40	35.8	32.5	35.8	71	27.3	4	7	112	0.00	30.049 
15:45	35.6	31.3	35.6	71	27.1	5	11	90	0.00	30.047 
15:50	35.6	31.3	35.6	71	27.1	5	9	112	0.00	30.047 
15:55	35.6	31.3	35.6	71	27.1	5	9	112	0.00	30.049 
16:00	35.6	32.2	35.6	71	27.1	4	7	90	0.00	30.048 
16:05	35.6	32.2	35.6	71	27.1	4	11	112	0.00	30.047 
16:10	35.6	31.3	35.6	71	27.1	5	11	112	0.00	30.048 
16:15	35.6	35.6	35.6	72	27.5	3	5	112	0.00	30.047 
16:20	35.8	35.8	35.8	72	27.7	3	5	90	0.00	30.049 
16:25	35.6	35.6	35.6	71	27.1	3	7	90	0.00	30.050 
16:30	35.6	32.2	35.6	71	27.1	4	9	112	0.00	30.049 
16:35	35.6	35.6	35.6	72	27.5	3	7	112	0.00	30.049 
16:40	35.6	35.6	35.6	71	27.1	3	6	90	0.00	30.049 
16:45	35.6	32.2	35.6	71	27.1	4	11	112	0.00	30.048 
16:50	35.6	32.2	35.6	71	27.1	4	7	112	0.00	30.049 
16:55	35.6	32.2	35.6	72	27.5	4	9	112	0.00	30.045 
17:00	35.6	35.6	35.6	72	27.5	3	7	112	0.00	30.038 
17:05	35.5	32.1	35.5	72	27.4	4	10	112	0.00	30.038 
17:10	35.5	32.1	35.5	73	27.7	4	10	112	0.00	30.034 
17:15	35.3	31.9	35.3	74	27.9	4	10	112	0.00	30.033 
17:20	35.3	35.3	35.3	74	27.9	3	6	112	0.00	30.032 
17:25	35.2	31.8	35.2	75	28.1	4	6	112	0.00	30.032 
17:30	35.2	31.8	35.2	75	28.1	4	6	112	0.00	30.032 
17:35	35.0	31.5	35.0	75	27.9	4	10	90	0.00	30.029 
17:40	35.0	30.6	35.0	75	27.9	5	10	112	0.00	30.019 
17:45	35.0	31.5	35.0	76	28.2	4	7	112	0.00	30.010 
17:50	34.9	30.5	34.9	75	27.8	5	11	112	0.00	30.009 
17:55	34.9	30.5	34.9	73	27.1	5	10	112	0.00	30.004 
18:00	34.9	31.4	34.9	75	27.8	4	10	112	0.00	30.005 
18:05	34.9	31.4	34.9	76	28.1	4	7	90	0.00	30.013 
18:10	34.9	30.5	34.9	75	27.8	5	11	112	0.00	30.019 
18:15	34.7	30.2	34.7	75	27.6	5	10	90	0.00	30.002 
18:20	34.7	28.1	34.7	75	27.6	8	15	112	0.00	29.972 
18:25	34.6	29.3	34.6	75	27.5	6	15	112	0.00	29.962 
18:30	34.4	28.4	34.4	76	27.6	7	13	112	0.00	29.972 
18:35	34.3	28.3	34.3	77	27.9	7	14	112	0.00	29.970 
18:40	34.1	29.5	34.1	78	28.0	5	13	112	0.00	29.973 
18:45	34.1	29.5	34.1	78	28.0	5	10	112	0.00	29.975 
18:50	34.1	28.7	34.1	77	27.7	6	12	112	0.00	29.977 
18:55	34.3	29.0	34.3	77	27.9	6	12	112	0.00	29.977 
19:00	34.3	29.0	34.3	77	27.9	6	11	112	0.00	29.976 
19:05	34.3	29.8	34.3	78	28.2	5	10	112	0.00	29.974 
19:10	34.3	28.3	34.3	77	27.9	7	15	90	0.00	29.970 
19:15	34.3	29.0	34.3	78	28.2	6	11	112	0.00	29.965 
19:20	34.3	29.0	34.3	78	28.2	6	13	90	0.00	29.967 
19:25	34.3	29.0	34.3	77	27.9	6	10	112	0.00	29.971 
19:30	34.4	29.1	34.4	77	27.9	6	14	112	0.00	29.975 
19:35	34.4	29.1	34.4	77	27.9	6	16	90	0.00	29.970 
19:40	34.3	28.3	34.3	77	27.9	7	16	112	0.00	29.940 
19:45	34.4	28.4	34.4	77	27.9	7	15	90	0.00	29.955 
19:50	34.4	29.9	34.4	77	27.9	5	11	112	0.00	29.971 
19:55	34.4	29.1	34.4	77	27.9	6	11	112	0.00	29.971 
20:00	34.6	29.3	34.6	76	27.8	6	13	112	0.00	29.959 
20:05	34.6	29.3	34.6	76	27.8	6	13	112	0.00	29.954 
20:10	34.6	28.6	34.6	76	27.8	7	13	112	0.00	29.954 
20:15	34.6	28.6	34.6	76	27.8	7	13	112	0.00	29.955 
20:20	34.6	29.3	34.6	76	27.8	6	12	90	0.00	29.960 
20:25	34.6	28.6	34.6	76	27.8	7	13	112	0.00	29.959 
20:30	34.6	29.3	34.6	77	28.1	6	12	112	0.00	29.953 
20:35	34.6	29.3	34.6	78	28.5	6	11	112	0.00	29.953 
20:40	34.4	29.1	34.4	78	28.3	6	12	112	0.00	29.958 
20:45	34.4	28.4	34.4	78	28.3	7	12	112	0.00	29.963 
20:50	34.4	29.9	34.4	78	28.3	5	11	90	0.00	29.960 
20:55	34.4	29.9	34.4	79	28.6	5	11	112	0.00	29.960 
21:00	34.4	29.1	34.4	79	28.6	6	13	90	0.00	29.962 
21:05	34.4	29.1	34.4	80	28.9	6	14	90	0.00	29.950 
21:10	34.3	29.0	34.3	80	28.8	6	10	112	0.00	29.952 
21:15	34.3	29.0	34.3	80	28.8	6	12	112	0.00	29.951 
21:20	34.3	29.0	34.3	81	29.1	6	10	112	0.00	29.950 
21:25	34.3	29.0	34.3	80	28.8	6	12	90	0.00	29.953 
21:30	34.3	29.0	34.3	81	29.1	6	12	112	0.00	29.947 
21:35	34.3	29.0	34.3	81	29.1	6	13	112	0.00	29.948 
21:40	34.3	29.8	34.3	81	29.1	5	10	112	0.00	29.951 
21:45	34.3	29.8	34.3	81	29.1	5	14	112	0.00	29.950 
21:50	34.3	29.8	34.3	81	29.1	5	11	112	0.00	29.953 
21:55	34.1	29.5	34.1	81	28.9	5	12	90	0.00	29.951 
22:00	34.1	30.5	34.1	81	28.9	4	10	112	0.00	29.949 
22:05	34.0	28.6	34.0	82	29.1	6	13	112	0.00	29.947 
22:10	34.0	27.9	34.0	82	29.1	7	12	112	0.00	29.942 
22:15	34.0	28.6	34.0	82	29.1	6	11	90	0.00	29.931 
22:20	33.8	26.5	33.8	82	28.9	9	14	112	0.00	29.930 
22:25	33.8	27.7	33.8	83	29.2	7	12	90	0.00	29.925 
22:30	33.8	28.4	33.8	84	29.5	6	11	112	0.00	29.920 
22:35	33.7	28.3	33.7	84	29.4	6	11	112	0.00	29.920 
22:40	33.8	27.7	33.8	84	29.5	7	14	90	0.00	29.918 
22:45	33.8	28.4	33.8	84	29.5	6	12	112	0.00	29.915 
22:50	33.8	27.0	33.8	83	29.2	8	14	90	0.00	29.914 
22:55	33.8	27.7	33.8	83	29.2	7	12	112	0.00	29.912 
23:00	33.8	27.7	33.8	83	29.2	7	14	112	0.00	29.908 
23:05	33.8	27.7	33.8	83	29.2	7	14	112	0.00	29.904 
23:10	33.8	27.7	33.8	83	29.2	7	15	90	0.00	29.900 
23:15	33.8	28.4	33.8	83	29.2	6	13	112	0.00	29.898 
23:20	33.8	28.4	33.8	83	29.2	6	14	90	0.00	29.896 
23:25	33.8	28.4	33.8	82	28.9	6	15	112	0.00	29.893 
23:30	33.8	27.0	33.8	82	28.9	8	13	90	0.00	29.887 
23:35	33.8	27.7	33.8	82	28.9	7	16	112	0.00	29.886 
23:40	33.8	28.4	33.8	82	28.9	6	13	112	0.00	29.885 
23:45	33.8	28.4	33.8	82	28.9	6	14	112	0.00	29.883 
23:50	33.8	28.4	33.8	82	28.9	6	11	112	0.00	29.882 
23:55	33.8	28.4	33.8	81	28.6	6	12	112	0.00	29.878 

CoCoRaHS
IN-AL-39
A2 Web Hosting
Creative Commons License
GoDaddy
Look for:

loaded 2017-10-19 12:11:00 • last modified 2010-11-18 10:43:29
Privacy PolicyDisclaimer
• wx.awcolley.com is powered by PmWiki v.2002016 •
• all content (unless otherwise noted) © 2017 A W Colley